createdAt,value
2022-10-26T04:19:40.918Z,16.33
2022-10-26T04:22:08.979Z,16.73
2022-10-26T04:24:38.165Z,16.48
2022-10-26T04:27:05.417Z,16.77
2022-10-26T04:29:32.640Z,17.45
2022-10-26T04:32:00.256Z,16.52
2022-10-26T04:34:28.083Z,16.95
2022-10-26T04:36:55.875Z,18.45
2022-10-26T04:39:23.988Z,17.33
2022-10-26T04:41:51.520Z,17.45
2022-10-26T04:44:19.167Z,16.95
2022-10-26T04:46:46.890Z,18.42
2022-10-26T04:49:14.654Z,18.40
2022-10-26T04:51:41.940Z,17.77
2022-10-26T04:54:09.366Z,16.80
2022-10-26T04:56:37.030Z,18.08
2022-10-26T04:59:04.712Z,18.05
2022-10-26T05:01:32.783Z,17.63
2022-10-26T05:04:00.189Z,19.00
2022-10-26T05:06:27.440Z,18.02
2022-10-26T05:08:55.091Z,19.52
2022-10-26T05:11:22.441Z,18.13
2022-10-26T05:13:50.255Z,17.70
2022-10-26T05:16:17.528Z,19.45
2022-10-26T05:18:48.292Z,20.02
2022-10-26T05:21:19.596Z,20.27
2022-10-26T05:23:52.590Z,20.08
2022-10-26T05:26:20.627Z,19.25
2022-10-26T05:28:48.908Z,18.45
2022-10-26T05:31:16.199Z,18.25
2022-10-26T05:33:43.589Z,19.00
2022-10-26T05:36:11.443Z,17.77
2022-10-26T05:38:38.839Z,19.15
2022-10-26T05:41:06.569Z,18.92
2022-10-26T05:43:33.805Z,17.88
2022-10-26T05:46:01.318Z,18.45
2022-10-26T05:48:29.026Z,19.08
2022-10-26T05:51:00.335Z,20.17
2022-10-26T05:53:28.512Z,21.73
2022-10-26T05:55:56.773Z,23.35
2022-10-26T05:58:24.823Z,23.73
2022-10-26T06:01:07.828Z,27.38
2022-10-26T06:03:59.220Z,24.40
2022-10-26T06:06:27.980Z,29.50
2022-10-26T06:08:55.539Z,35.00
2022-10-26T06:11:23.041Z,29.08
2022-10-26T06:13:54.555Z,29.30
2022-10-26T06:16:47.124Z,29.40
2022-10-26T06:19:23.975Z,22.10
2022-10-26T06:22:12.120Z,19.10
2022-10-26T06:24:54.332Z,18.20
2022-10-26T06:27:38.993Z,17.50
2022-10-26T06:30:12.325Z,18.00
2022-10-26T06:32:44.919Z,18.70
2022-10-26T06:35:23.941Z,17.98
2022-10-26T06:37:54.067Z,19.15
2022-10-26T06:40:22.828Z,18.83
2022-10-26T06:42:50.312Z,17.90
2022-10-26T06:45:18.053Z,17.77
2022-10-26T06:48:14.807Z,17.05
2022-10-26T06:50:55.012Z,17.83
2022-10-26T06:56:14.003Z,18.38
2022-10-26T06:58:43.803Z,18.05
2022-10-26T07:01:12.477Z,17.17
2022-10-26T07:03:39.791Z,17.65
2022-10-26T07:06:07.340Z,17.77
2022-10-26T07:08:35.336Z,18.30
2022-10-26T07:11:02.667Z,17.58
2022-10-26T07:13:30.176Z,17.92
2022-10-26T07:15:57.601Z,18.33
2022-10-26T07:18:25.088Z,17.23
2022-10-26T07:20:53.242Z,18.67
2022-10-26T07:23:23.133Z,17.85
2022-10-26T07:25:50.911Z,17.45
2022-10-26T07:28:18.184Z,18.63
2022-10-26T07:30:46.106Z,18.60
2022-10-26T07:33:14.653Z,17.17
2022-10-26T07:35:42.494Z,18.58
2022-10-26T07:38:11.343Z,17.90
2022-10-26T07:40:38.586Z,18.17
2022-10-26T07:43:07.158Z,18.20
2022-10-26T07:45:35.195Z,17.13
2022-10-26T07:48:02.903Z,18.05
2022-10-26T07:50:31.256Z,17.42
2022-10-26T07:52:59.797Z,18.30
2022-10-26T07:55:28.240Z,17.90
2022-10-26T07:57:56.502Z,18.70
2022-10-26T08:00:25.664Z,19.23
2022-10-26T08:02:53.109Z,19.13
2022-10-26T08:05:20.497Z,18.85
2022-10-26T08:07:48.736Z,18.33
2022-10-26T08:10:16.945Z,18.85
2022-10-26T08:12:44.402Z,18.10
2022-10-26T08:15:12.051Z,19.33
2022-10-26T08:17:39.360Z,18.75
2022-10-26T08:20:07.412Z,20.13
2022-10-26T08:22:34.818Z,19.15
2022-10-26T08:25:02.552Z,19.83
2022-10-26T08:27:29.860Z,20.52
2022-10-26T08:29:57.059Z,20.80
2022-10-26T08:32:24.958Z,20.75
2022-10-26T08:34:52.768Z,21.27
2022-10-26T08:37:19.975Z,20.50
2022-10-26T08:39:49.311Z,22.25
2022-10-26T08:42:30.526Z,21.98
2022-10-26T08:45:06.524Z,21.33
2022-10-26T08:47:44.048Z,20.27
2022-10-26T08:50:31.591Z,20.55
2022-10-26T08:53:18.057Z,21.02
2022-10-26T08:55:51.178Z,23.77
2022-10-26T08:58:24.739Z,22.77
2022-10-26T09:00:53.653Z,22.83
2022-10-26T09:03:21.016Z,23.15
2022-10-26T09:06:06.925Z,22.67
2022-10-26T09:08:55.190Z,23.05
2022-10-26T09:11:43.598Z,23.20
2022-10-26T09:14:21.132Z,22.23
2022-10-26T09:17:06.080Z,23.05
2022-10-26T09:20:06.440Z,24.17
2022-10-26T09:22:53.487Z,26.77
2022-10-26T09:25:23.700Z,26.17
2022-10-26T09:27:55.884Z,26.73
2022-10-26T09:30:24.546Z,26.42
2022-10-26T09:33:15.292Z,28.48
2022-10-26T09:35:50.011Z,28.77
2022-10-26T09:38:44.508Z,25.08
2022-10-26T09:41:44.230Z,27.25
2022-10-26T09:44:20.393Z,26.30
2022-10-26T09:47:02.557Z,26.23
2022-10-26T09:49:48.902Z,26.40
2022-10-26T09:52:16.723Z,25.75
2022-10-26T09:54:44.287Z,25.58
2022-10-26T09:57:16.714Z,25.88
2022-10-26T09:59:48.105Z,24.08
2022-10-26T10:05:02.006Z,21.55
2022-10-26T10:07:29.727Z,23.35
2022-10-26T10:10:18.879Z,23.13
2022-10-26T10:12:49.885Z,22.73
2022-10-26T10:15:23.897Z,22.15
2022-10-26T10:17:54.266Z,21.15
2022-10-26T10:20:31.159Z,21.60
2022-10-26T10:23:00.588Z,19.58
2022-10-26T10:25:38.957Z,21.38
2022-10-26T10:28:24.710Z,20.17
2022-10-26T10:30:59.362Z,21.42
2022-10-26T10:33:38.723Z,20.83
2022-10-26T10:36:10.184Z,20.65
2022-10-26T10:41:16.571Z,20.98
2022-10-26T10:43:48.300Z,21.08
2022-10-26T10:48:51.036Z,19.90
2022-10-26T10:51:22.461Z,21.55
2022-10-26T10:56:31.393Z,19.17
2022-10-26T10:59:37.521Z,17.98
2022-10-26T11:02:34.670Z,18.58
2022-10-26T11:05:23.396Z,19.45
2022-10-26T11:10:30.137Z,18.30
2022-10-26T11:13:02.428Z,17.95
2022-10-26T11:15:33.908Z,20.45
2022-10-26T11:20:43.037Z,20.27
2022-10-26T11:23:18.333Z,19.45
2022-10-26T11:26:10.278Z,20.35
2022-10-26T11:28:52.287Z,19.85
2022-10-26T11:31:38.054Z,19.08
2022-10-26T11:34:32.035Z,19.73
2022-10-26T11:37:08.505Z,19.92
2022-10-26T11:39:46.410Z,16.05
2022-10-26T11:42:19.763Z,17.15
2022-10-26T11:45:04.144Z,19.00
2022-10-26T11:47:44.163Z,17.05
2022-10-26T11:50:17.345Z,18.08
2022-10-26T11:52:49.452Z,18.90
2022-10-26T11:55:18.504Z,17.65
2022-10-26T11:57:49.337Z,15.73
2022-10-26T12:00:20.568Z,15.40
2022-10-26T12:02:57.267Z,17.00
2022-10-26T12:05:39.861Z,16.52
2022-10-26T12:08:16.023Z,15.90
2022-10-26T12:10:52.883Z,16.80
2022-10-26T12:13:48.110Z,17.02
2022-10-26T12:16:50.028Z,16.38
2022-10-26T12:21:50.939Z,16.98
2022-10-26T12:24:24.552Z,15.40
2022-10-26T12:27:30.834Z,15.75
2022-10-26T12:30:19.831Z,16.98
2022-10-26T12:32:50.646Z,16.10
2022-10-26T12:35:37.918Z,15.23
2022-10-26T12:38:24.086Z,15.55
2022-10-26T12:41:07.371Z,15.45
2022-10-26T12:43:40.487Z,13.90
2022-10-26T12:46:13.838Z,14.35
2022-10-26T12:48:45.448Z,13.48
2022-10-26T12:51:21.869Z,13.15
2022-10-26T12:54:12.372Z,12.15
2022-10-26T12:56:49.672Z,12.82
2022-10-26T12:59:20.409Z,13.05
2022-10-26T13:02:21.916Z,15.48
2022-10-26T13:04:54.772Z,12.40
2022-10-26T13:07:33.762Z,14.50
2022-10-26T13:10:03.595Z,15.00
2022-10-26T13:12:39.243Z,15.40
2022-10-26T13:15:28.257Z,14.80
2022-10-26T13:18:00.181Z,14.55
2022-10-26T13:20:30.370Z,14.77
2022-10-26T13:22:58.708Z,14.05
2022-10-26T13:25:29.300Z,14.98
2022-10-26T13:28:21.873Z,15.77
2022-10-26T13:30:53.987Z,15.57
2022-10-26T13:33:30.079Z,16.35
2022-10-26T13:36:02.019Z,17.40
2022-10-26T13:38:33.390Z,17.70
2022-10-26T13:43:44.242Z,16.67
2022-10-26T13:46:30.250Z,16.77
2022-10-26T13:49:05.967Z,17.23
2022-10-26T13:51:44.082Z,16.33
2022-10-26T13:54:29.882Z,17.33
2022-10-26T13:57:00.214Z,19.35
2022-10-26T13:59:30.403Z,18.05
2022-10-26T14:02:41.857Z,20.67
2022-10-26T14:07:59.735Z,22.17
2022-10-26T14:10:28.814Z,21.90
2022-10-26T14:12:57.527Z,22.52
2022-10-26T14:15:30.716Z,24.50
2022-10-26T14:17:59.967Z,24.42
2022-10-26T14:20:30.067Z,24.00
2022-10-26T14:22:57.626Z,22.92
2022-10-26T14:25:36.230Z,20.13
2022-10-26T14:28:40.623Z,19.83
2022-10-26T14:31:30.297Z,21.10
2022-10-26T14:34:00.247Z,19.50
2022-10-26T14:36:43.072Z,18.27
2022-10-26T14:39:31.628Z,17.80
2022-10-26T14:42:02.390Z,17.60
2022-10-26T14:44:30.237Z,15.88
2022-10-26T14:46:57.572Z,14.70
2022-10-26T14:49:27.880Z,16.23
2022-10-26T14:52:06.595Z,16.90
2022-10-26T14:54:34.819Z,15.63
2022-10-26T14:57:08.624Z,16.80
2022-10-26T14:59:35.848Z,17.55
2022-10-26T15:02:24.585Z,17.02
2022-10-26T15:05:01.395Z,18.10
2022-10-26T15:07:39.706Z,18.73
2022-10-26T15:10:36.052Z,17.92
2022-10-26T15:13:29.479Z,19.73
2022-10-26T15:16:31.449Z,24.63
2022-10-26T15:19:08.045Z,26.20
2022-10-26T15:21:41.651Z,25.10
2022-10-26T15:24:21.297Z,26.13
2022-10-26T15:26:48.672Z,26.60
2022-10-26T15:29:34.724Z,25.60
2022-10-26T15:34:32.860Z,25.05
2022-10-26T15:37:00.676Z,26.67
2022-10-26T15:39:27.928Z,25.17
2022-10-26T15:41:55.875Z,26.95
2022-10-26T15:44:23.158Z,27.65
2022-10-26T15:46:51.294Z,26.15
2022-10-26T15:49:20.700Z,25.45
2022-10-26T15:51:49.373Z,27.83
2022-10-26T15:54:16.620Z,27.70
2022-10-26T15:56:44.167Z,27.60
2022-10-26T15:59:16.225Z,28.45
2022-10-26T16:01:44.116Z,28.15
2022-10-26T16:04:12.225Z,29.65
2022-10-26T16:06:41.707Z,27.95
2022-10-26T16:09:18.196Z,28.33
2022-10-26T16:11:45.597Z,29.38
2022-10-26T16:14:13.085Z,30.95
2022-10-26T16:16:41.422Z,30.48
2022-10-26T16:19:30.700Z,29.10
2022-10-26T16:22:08.456Z,28.27
2022-10-26T16:24:38.770Z,29.25
2022-10-26T16:27:06.280Z,29.10
2022-10-26T16:29:34.710Z,30.90
2022-10-26T16:32:02.377Z,31.23
2022-10-26T16:34:31.484Z,32.08
2022-10-26T16:37:02.651Z,32.00
2022-10-26T16:39:29.907Z,33.95
2022-10-26T16:41:58.048Z,33.53
2022-10-26T16:44:25.272Z,35.97
2022-10-26T16:46:52.952Z,36.15
2022-10-26T16:49:20.268Z,35.65
2022-10-26T16:51:47.752Z,35.45
2022-10-26T16:54:15.298Z,36.38
2022-10-26T16:56:43.018Z,36.08
2022-10-26T16:59:11.102Z,37.50
2022-10-26T17:01:38.674Z,36.83
2022-10-26T17:04:06.189Z,37.42
2022-10-26T17:06:33.445Z,37.70
2022-10-26T17:09:01.665Z,39.72
2022-10-26T17:11:28.959Z,38.60
2022-10-26T17:13:56.465Z,38.60
2022-10-26T17:16:25.593Z,39.40
2022-10-26T17:18:54.189Z,40.08
2022-10-26T17:21:31.068Z,41.38
2022-10-26T17:23:58.859Z,42.28
2022-10-26T17:26:26.472Z,42.13
2022-10-26T17:28:56.686Z,42.28
2022-10-26T17:31:25.349Z,41.95
2022-10-26T17:33:52.872Z,42.65
2022-10-26T17:36:21.757Z,43.35
2022-10-26T17:38:51.264Z,42.90
2022-10-26T17:41:21.353Z,43.53
2022-10-26T17:43:49.737Z,43.97
2022-10-26T17:46:20.487Z,45.38
2022-10-26T17:48:48.375Z,43.20
2022-10-26T17:51:19.661Z,43.85
2022-10-26T17:53:48.453Z,44.58
2022-10-26T17:56:22.256Z,43.58
2022-10-26T17:58:54.661Z,42.50
2022-10-26T18:01:23.609Z,43.10
2022-10-26T18:03:52.241Z,43.75
2022-10-26T18:06:20.144Z,43.47
2022-10-26T18:08:48.049Z,43.15
2022-10-26T18:11:22.555Z,43.30
2022-10-26T18:13:54.163Z,43.20
2022-10-26T18:16:23.171Z,44.53
2022-10-26T18:19:00.900Z,45.72
2022-10-26T18:21:32.917Z,44.80
2022-10-26T18:24:00.520Z,45.42
2022-10-26T18:26:29.669Z,45.30
2022-10-26T18:28:59.462Z,44.30
2022-10-26T18:31:29.336Z,45.40
2022-10-26T18:34:02.422Z,45.80
2022-10-26T18:36:30.415Z,45.08
2022-10-26T18:38:58.358Z,46.67
2022-10-26T18:41:26.696Z,45.15
2022-10-26T18:43:59.004Z,44.53
2022-10-26T18:46:33.558Z,44.17
2022-10-26T18:49:01.232Z,43.47
2022-10-26T18:51:32.484Z,43.47
2022-10-26T18:54:01.191Z,44.00
2022-10-26T18:56:29.023Z,43.20
2022-10-26T18:58:58.737Z,43.63
2022-10-26T19:01:31.895Z,41.97
2022-10-26T19:04:02.234Z,42.35
2022-10-26T19:06:32.549Z,44.30
2022-10-26T19:09:01.597Z,44.75
2022-10-26T19:11:31.474Z,43.33
2022-10-26T19:13:59.994Z,43.75
2022-10-26T19:16:48.196Z,44.28
2022-10-26T19:19:16.969Z,44.83
2022-10-26T19:21:46.499Z,43.55
2022-10-26T19:24:19.304Z,43.72
2022-10-26T19:26:47.979Z,41.78
2022-10-26T19:29:17.208Z,42.72
2022-10-26T19:31:51.030Z,44.53
2022-10-26T19:34:19.210Z,45.70
2022-10-26T19:36:47.020Z,44.00
2022-10-26T19:39:18.448Z,42.67
2022-10-26T19:41:46.473Z,44.58
2022-10-26T19:44:15.324Z,44.55
2022-10-26T19:46:43.845Z,43.85
2022-10-26T19:49:17.496Z,43.60
2022-10-26T19:51:44.854Z,42.00
2022-10-26T19:54:12.235Z,46.00
2022-10-26T19:56:40.375Z,43.88
2022-10-26T19:59:08.240Z,44.72
2022-10-26T20:01:35.975Z,44.88
2022-10-26T20:04:04.923Z,44.00
2022-10-26T20:06:32.419Z,44.38
2022-10-26T20:09:00.050Z,46.33
2022-10-26T20:11:28.161Z,47.70
2022-10-26T20:13:56.422Z,44.63
2022-10-26T20:16:24.473Z,47.28
2022-10-26T20:18:51.961Z,46.20
2022-10-26T20:21:19.877Z,45.97
2022-10-26T20:23:48.049Z,44.53
2022-10-26T20:26:19.133Z,46.05
2022-10-26T20:28:50.919Z,45.33
2022-10-26T20:31:19.881Z,45.95
2022-10-26T20:33:53.647Z,46.45
2022-10-26T20:36:21.758Z,45.28
2022-10-26T20:38:49.621Z,46.60
2022-10-26T20:41:18.482Z,47.42
2022-10-26T20:43:46.290Z,45.63
2022-10-26T20:46:23.481Z,46.13
2022-10-26T20:48:52.480Z,44.78
2022-10-26T20:52:02.640Z,45.42
2022-10-26T20:54:44.608Z,44.88
2022-10-26T20:57:17.937Z,43.83
2022-10-26T20:59:48.335Z,43.67
2022-10-26T21:02:16.376Z,45.67
2022-10-26T21:04:43.980Z,44.53
2022-10-26T21:07:11.236Z,44.70
2022-10-26T21:09:38.812Z,43.70
2022-10-26T21:12:06.593Z,45.67
2022-10-26T21:14:40.529Z,44.03
2022-10-26T21:17:08.766Z,46.55
2022-10-26T21:19:36.822Z,42.47
2022-10-26T21:22:04.197Z,43.58
2022-10-26T21:24:31.451Z,43.15
2022-10-26T21:26:58.766Z,43.58
2022-10-26T21:29:26.004Z,44.47
2022-10-26T21:31:53.256Z,44.00
